sensor_id;sensor_type;location;lat;lon;timestamp;P1;durP1;ratioP1;P2;durP2;ratioP2
23624;SDS011;11989;47.872;12.014;2023-06-14T03:33:45;8.02;;;5.40;;
23624;SDS011;11989;47.872;12.014;2023-06-14T03:36:11;8.32;;;5.38;;
23624;SDS011;11989;47.872;12.014;2023-06-14T03:38:38;10.20;;;6.00;;
23624;SDS011;11989;47.872;12.014;2023-06-14T03:41:04;9.02;;;5.90;;
23624;SDS011;11989;47.872;12.014;2023-06-14T03:43:30;11.35;;;6.25;;
23624;SDS011;11989;47.872;12.014;2023-06-14T03:45:56;9.32;;;6.15;;
23624;SDS011;11989;47.872;12.014;2023-06-14T03:48:22;11.07;;;5.68;;
23624;SDS011;11989;47.872;12.014;2023-06-14T03:50:48;12.15;;;5.65;;
23624;SDS011;11989;47.872;12.014;2023-06-14T03:53:14;11.10;;;6.63;;
23624;SDS011;11989;47.872;12.014;2023-06-14T03:55:40;11.48;;;7.15;;
23624;SDS011;11989;47.872;12.014;2023-06-14T03:58:06;9.70;;;6.18;;
23624;SDS011;11989;47.872;12.014;2023-06-14T04:00:32;9.10;;;5.40;;
23624;SDS011;11989;47.872;12.014;2023-06-14T04:02:58;7.65;;;5.40;;
23624;SDS011;11989;47.872;12.014;2023-06-14T04:05:24;8.00;;;5.35;;
23624;SDS011;11989;47.872;12.014;2023-06-14T04:07:51;7.70;;;5.60;;
23624;SDS011;11989;47.872;12.014;2023-06-14T04:10:21;8.00;;;5.18;;
23624;SDS011;11989;47.872;12.014;2023-06-14T04:12:47;8.40;;;5.25;;
23624;SDS011;11989;47.872;12.014;2023-06-14T04:15:14;8.23;;;5.05;;
23624;SDS011;11989;47.872;12.014;2023-06-14T04:17:40;7.07;;;4.72;;
23624;SDS011;11989;47.872;12.014;2023-06-14T04:20:06;8.75;;;5.43;;
23624;SDS011;11989;47.872;12.014;2023-06-14T04:22:34;8.30;;;5.50;;
23624;SDS011;11989;47.872;12.014;2023-06-14T04:25:01;7.70;;;5.00;;
23624;SDS011;11989;47.872;12.014;2023-06-14T04:27:27;6.68;;;5.32;;
23624;SDS011;11989;47.872;12.014;2023-06-14T04:29:56;8.45;;;4.90;;
23624;SDS011;11989;47.872;12.014;2023-06-14T04:32:26;8.80;;;5.93;;
23624;SDS011;11989;47.872;12.014;2023-06-14T04:34:53;7.70;;;5.25;;
23624;SDS011;11989;47.872;12.014;2023-06-14T04:37:20;8.00;;;5.28;;
23624;SDS011;11989;47.872;12.014;2023-06-14T04:39:47;8.48;;;4.53;;
23624;SDS011;11989;47.872;12.014;2023-06-14T04:42:13;7.10;;;5.22;;
23624;SDS011;11989;47.872;12.014;2023-06-14T04:44:41;8.52;;;5.20;;
23624;SDS011;11989;47.872;12.014;2023-06-14T04:47:09;7.80;;;5.28;;
23624;SDS011;11989;47.872;12.014;2023-06-14T04:49:34;8.55;;;4.85;;
23624;SDS011;11989;47.872;12.014;2023-06-14T04:52:01;6.70;;;5.40;;
23624;SDS011;11989;47.872;12.014;2023-06-14T04:54:27;10.50;;;5.35;;
23624;SDS011;11989;47.872;12.014;2023-06-14T04:56:53;7.25;;;5.10;;
23624;SDS011;11989;47.872;12.014;2023-06-14T04:59:20;8.25;;;5.80;;
23624;SDS011;11989;47.872;12.014;2023-06-14T05:01:48;11.48;;;6.07;;
23624;SDS011;11989;47.872;12.014;2023-06-14T05:04:17;8.60;;;5.57;;
23624;SDS011;11989;47.872;12.014;2023-06-14T05:06:43;8.35;;;5.72;;
23624;SDS011;11989;47.872;12.014;2023-06-14T05:09:15;8.40;;;5.53;;
23624;SDS011;11989;47.872;12.014;2023-06-14T05:11:42;7.78;;;5.72;;
23624;SDS011;11989;47.872;12.014;2023-06-14T05:14:09;7.82;;;6.03;;
23624;SDS011;11989;47.872;12.014;2023-06-14T05:16:35;9.48;;;6.18;;
23624;SDS011;11989;47.872;12.014;2023-06-14T05:19:02;8.63;;;5.88;;
23624;SDS011;11989;47.872;12.014;2023-06-14T05:21:29;9.35;;;5.82;;
23624;SDS011;11989;47.872;12.014;2023-06-14T05:23:55;7.50;;;5.13;;
23624;SDS011;11989;47.872;12.014;2023-06-14T05:26:21;8.90;;;5.47;;
23624;SDS011;11989;47.872;12.014;2023-06-14T05:28:54;10.27;;;6.15;;
23624;SDS011;11989;47.872;12.014;2023-06-14T05:31:21;13.15;;;7.03;;
23624;SDS011;11989;47.872;12.014;2023-06-14T05:33:48;9.27;;;5.75;;
23624;SDS011;11989;47.872;12.014;2023-06-14T05:36:14;15.18;;;5.88;;
23624;SDS011;11989;47.872;12.014;2023-06-14T05:38:40;11.73;;;6.72;;
23624;SDS011;11989;47.872;12.014;2023-06-14T05:41:06;10.52;;;5.90;;
23624;SDS011;11989;47.872;12.014;2023-06-14T05:43:32;13.43;;;5.60;;
23624;SDS011;11989;47.872;12.014;2023-06-14T05:45:58;11.00;;;5.72;;
23624;SDS011;11989;47.872;12.014;2023-06-14T05:48:24;8.45;;;5.95;;
23624;SDS011;11989;47.872;12.014;2023-06-14T05:50:50;12.85;;;6.47;;
23624;SDS011;11989;47.872;12.014;2023-06-14T05:53:16;9.68;;;5.88;;
23624;SDS011;11989;47.872;12.014;2023-06-14T05:55:42;8.48;;;5.30;;
23624;SDS011;11989;47.872;12.014;2023-06-14T05:58:08;9.90;;;5.75;;
23624;SDS011;11989;47.872;12.014;2023-06-14T06:00:35;7.18;;;4.90;;
23624;SDS011;11989;47.872;12.014;2023-06-14T06:03:02;11.45;;;4.75;;
23624;SDS011;11989;47.872;12.014;2023-06-14T06:05:28;8.13;;;5.13;;
23624;SDS011;11989;47.872;12.014;2023-06-14T06:07:54;8.73;;;5.35;;
23624;SDS011;11989;47.872;12.014;2023-06-14T06:10:20;6.70;;;4.72;;
23624;SDS011;11989;47.872;12.014;2023-06-14T06:12:46;7.55;;;5.28;;
23624;SDS011;11989;47.872;12.014;2023-06-14T06:15:13;9.40;;;5.75;;
23624;SDS011;11989;47.872;12.014;2023-06-14T06:17:39;8.80;;;4.55;;
23624;SDS011;11989;47.872;12.014;2023-06-14T06:20:06;8.20;;;5.07;;
23624;SDS011;11989;47.872;12.014;2023-06-14T06:22:33;7.75;;;4.68;;
23624;SDS011;11989;47.872;12.014;2023-06-14T06:24:59;7.88;;;5.35;;
23624;SDS011;11989;47.872;12.014;2023-06-14T06:27:25;8.63;;;4.22;;
23624;SDS011;11989;47.872;12.014;2023-06-14T06:29:51;7.32;;;4.55;;
23624;SDS011;11989;47.872;12.014;2023-06-14T06:32:18;6.30;;;4.05;;
23624;SDS011;11989;47.872;12.014;2023-06-14T06:34:44;7.43;;;4.65;;
23624;SDS011;11989;47.872;12.014;2023-06-14T06:37:10;6.97;;;3.83;;
23624;SDS011;11989;47.872;12.014;2023-06-14T06:39:36;5.88;;;3.70;;
23624;SDS011;11989;47.872;12.014;2023-06-14T06:42:02;6.05;;;3.97;;
23624;SDS011;11989;47.872;12.014;2023-06-14T06:44:28;6.18;;;3.97;;
23624;SDS011;11989;47.872;12.014;2023-06-14T06:46:54;6.10;;;4.07;;
23624;SDS011;11989;47.872;12.014;2023-06-14T06:49:20;8.00;;;4.30;;
23624;SDS011;11989;47.872;12.014;2023-06-14T06:52:03;6.70;;;4.18;;
23624;SDS011;11989;47.872;12.014;2023-06-14T06:54:29;7.65;;;4.50;;
23624;SDS011;11989;47.872;12.014;2023-06-14T06:56:55;6.03;;;4.10;;
23624;SDS011;11989;47.872;12.014;2023-06-14T06:59:21;8.07;;;4.20;;
23624;SDS011;11989;47.872;12.014;2023-06-14T07:01:48;6.15;;;3.92;;
23624;SDS011;11989;47.872;12.014;2023-06-14T07:04:14;7.63;;;4.10;;
23624;SDS011;11989;47.872;12.014;2023-06-14T07:06:41;7.10;;;4.13;;
23624;SDS011;11989;47.872;12.014;2023-06-14T07:09:07;5.35;;;3.95;;
23624;SDS011;11989;47.872;12.014;2023-06-14T07:11:37;5.35;;;3.55;;
23624;SDS011;11989;47.872;12.014;2023-06-14T07:14:03;7.15;;;3.72;;
23624;SDS011;11989;47.872;12.014;2023-06-14T07:16:29;6.70;;;4.10;;
23624;SDS011;11989;47.872;12.014;2023-06-14T07:18:55;6.53;;;3.92;;
23624;SDS011;11989;47.872;12.014;2023-06-14T07:21:21;5.18;;;4.00;;
23624;SDS011;11989;47.872;12.014;2023-06-14T07:23:47;5.80;;;3.75;;
23624;SDS011;11989;47.872;12.014;2023-06-14T07:26:13;8.88;;;4.90;;
23624;SDS011;11989;47.872;12.014;2023-06-14T07:28:39;7.20;;;4.07;;
23624;SDS011;11989;47.872;12.014;2023-06-14T07:31:05;6.20;;;3.63;;
23624;SDS011;11989;47.872;12.014;2023-06-14T07:33:31;6.30;;;4.03;;
23624;SDS011;11989;47.872;12.014;2023-06-14T07:35:57;7.03;;;4.28;;
23624;SDS011;11989;47.872;12.014;2023-06-14T07:38:23;7.75;;;4.00;;
23624;SDS011;11989;47.872;12.014;2023-06-14T07:40:49;7.32;;;4.18;;
23624;SDS011;11989;47.872;12.014;2023-06-14T07:43:15;8.43;;;4.18;;
23624;SDS011;11989;47.872;12.014;2023-06-14T07:45:41;10.05;;;4.32;;
23624;SDS011;11989;47.872;12.014;2023-06-14T07:48:08;5.90;;;3.85;;
23624;SDS011;11989;47.872;12.014;2023-06-14T07:50:35;6.55;;;3.53;;
23624;SDS011;11989;47.872;12.014;2023-06-14T07:53:01;6.97;;;4.20;;
23624;SDS011;11989;47.872;12.014;2023-06-14T07:55:27;9.73;;;4.53;;
23624;SDS011;11989;47.872;12.014;2023-06-14T07:57:53;5.90;;;4.47;;
23624;SDS011;11989;47.872;12.014;2023-06-14T08:00:19;8.10;;;4.70;;
23624;SDS011;11989;47.872;12.014;2023-06-14T08:02:45;8.05;;;4.35;;
23624;SDS011;11989;47.872;12.014;2023-06-14T08:05:12;6.85;;;4.72;;
23624;SDS011;11989;47.872;12.014;2023-06-14T08:07:38;7.28;;;4.07;;
23624;SDS011;11989;47.872;12.014;2023-06-14T08:10:05;6.93;;;5.00;;
23624;SDS011;11989;47.872;12.014;2023-06-14T08:12:31;7.07;;;4.40;;
23624;SDS011;11989;47.872;12.014;2023-06-14T08:14:58;7.85;;;4.70;;
23624;SDS011;11989;47.872;12.014;2023-06-14T08:17:24;9.25;;;4.47;;
23624;SDS011;11989;47.872;12.014;2023-06-14T08:19:50;7.43;;;4.47;;
23624;SDS011;11989;47.872;12.014;2023-06-14T08:22:17;7.65;;;3.85;;
23624;SDS011;11989;47.872;12.014;2023-06-14T08:24:43;8.40;;;4.40;;
23624;SDS011;11989;47.872;12.014;2023-06-14T08:27:09;6.35;;;4.22;;
23624;SDS011;11989;47.872;12.014;2023-06-14T08:29:35;8.77;;;4.38;;
23624;SDS011;11989;47.872;12.014;2023-06-14T08:32:03;8.43;;;4.70;;
23624;SDS011;11989;47.872;12.014;2023-06-14T08:34:29;7.57;;;4.40;;
23624;SDS011;11989;47.872;12.014;2023-06-14T08:36:55;8.45;;;4.47;;
23624;SDS011;11989;47.872;12.014;2023-06-14T08:39:21;5.85;;;3.95;;
23624;SDS011;11989;47.872;12.014;2023-06-14T08:41:48;7.55;;;3.95;;
23624;SDS011;11989;47.872;12.014;2023-06-14T08:44:17;9.02;;;4.15;;
23624;SDS011;11989;47.872;12.014;2023-06-14T08:46:43;6.80;;;3.80;;
23624;SDS011;11989;47.872;12.014;2023-06-14T08:49:12;6.78;;;4.53;;
23624;SDS011;11989;47.872;12.014;2023-06-14T08:51:39;6.03;;;3.80;;
23624;SDS011;11989;47.872;12.014;2023-06-14T08:54:05;6.00;;;3.95;;
23624;SDS011;11989;47.872;12.014;2023-06-14T08:56:32;6.38;;;4.35;;
23624;SDS011;11989;47.872;12.014;2023-06-14T08:59:01;7.22;;;4.10;;
23624;SDS011;11989;47.872;12.014;2023-06-14T09:01:34;7.20;;;4.18;;
23624;SDS011;11989;47.872;12.014;2023-06-14T09:04:00;6.53;;;3.90;;
23624;SDS011;11989;47.872;12.014;2023-06-14T09:06:27;6.05;;;3.80;;
23624;SDS011;11989;47.872;12.014;2023-06-14T09:08:54;8.70;;;3.80;;
23624;SDS011;11989;47.872;12.014;2023-06-14T09:11:24;7.32;;;3.65;;
23624;SDS011;11989;47.872;12.014;2023-06-14T09:13:51;8.00;;;4.22;;
23624;SDS011;11989;47.872;12.014;2023-06-14T09:16:17;6.70;;;4.45;;
23624;SDS011;11989;47.872;12.014;2023-06-14T09:18:44;7.55;;;4.13;;
23624;SDS011;11989;47.872;12.014;2023-06-14T09:21:12;6.50;;;3.65;;
23624;SDS011;11989;47.872;12.014;2023-06-14T09:23:39;6.10;;;4.13;;
23624;SDS011;11989;47.872;12.014;2023-06-14T09:26:09;5.88;;;3.63;;
23624;SDS011;11989;47.872;12.014;2023-06-14T09:28:35;7.15;;;3.92;;
23624;SDS011;11989;47.872;12.014;2023-06-14T09:31:02;6.00;;;3.42;;
23624;SDS011;11989;47.872;12.014;2023-06-14T09:33:28;6.90;;;3.70;;
23624;SDS011;11989;47.872;12.014;2023-06-14T09:35:54;8.30;;;3.95;;
23624;SDS011;11989;47.872;12.014;2023-06-14T09:38:20;9.52;;;3.78;;
23624;SDS011;11989;47.872;12.014;2023-06-14T09:40:46;7.00;;;3.75;;
23624;SDS011;11989;47.872;12.014;2023-06-14T09:43:12;8.18;;;3.28;;
23624;SDS011;11989;47.872;12.014;2023-06-14T09:45:38;8.70;;;3.03;;
23624;SDS011;11989;47.872;12.014;2023-06-14T09:48:05;8.27;;;4.10;;
23624;SDS011;11989;47.872;12.014;2023-06-14T09:50:32;4.78;;;3.38;;
23624;SDS011;11989;47.872;12.014;2023-06-14T09:52:59;5.70;;;2.85;;
23624;SDS011;11989;47.872;12.014;2023-06-14T09:55:28;5.68;;;2.92;;
23624;SDS011;11989;47.872;12.014;2023-06-14T09:57:56;8.00;;;3.40;;
23624;SDS011;11989;47.872;12.014;2023-06-14T10:00:22;10.35;;;3.47;;
23624;SDS011;11989;47.872;12.014;2023-06-14T10:02:49;6.43;;;3.05;;
23624;SDS011;11989;47.872;12.014;2023-06-14T10:05:19;6.65;;;3.58;;
23624;SDS011;11989;47.872;12.014;2023-06-14T10:10:42;4.85;;;3.35;;
23624;SDS011;11989;47.872;12.014;2023-06-14T10:13:08;7.70;;;3.13;;
23624;SDS011;11989;47.872;12.014;2023-06-14T10:15:58;5.57;;;3.15;;
23624;SDS011;11989;47.872;12.014;2023-06-14T10:18:29;6.97;;;3.40;;
23624;SDS011;11989;47.872;12.014;2023-06-14T10:21:04;6.70;;;3.67;;
23624;SDS011;11989;47.872;12.014;2023-06-14T10:23:34;6.93;;;3.42;;
23624;SDS011;11989;47.872;12.014;2023-06-14T10:26:01;6.57;;;3.38;;
23624;SDS011;11989;47.872;12.014;2023-06-14T10:28:27;6.13;;;3.60;;
23624;SDS011;11989;47.872;12.014;2023-06-14T10:34:21;7.40;;;3.65;;
23624;SDS011;11989;47.872;12.014;2023-06-14T10:39:16;4.97;;;3.45;;
23624;SDS011;11989;47.872;12.014;2023-06-14T10:41:50;15.77;;;3.60;;
23624;SDS011;11989;47.872;12.014;2023-06-14T10:46:45;5.80;;;3.47;;
23624;SDS011;11989;47.872;12.014;2023-06-14T10:49:11;6.10;;;4.07;;
23624;SDS011;11989;47.872;12.014;2023-06-14T10:51:38;4.97;;;3.50;;
23624;SDS011;11989;47.872;12.014;2023-06-14T10:54:17;4.75;;;3.38;;
23624;SDS011;11989;47.872;12.014;2023-06-14T10:56:49;5.03;;;3.35;;
23624;SDS011;11989;47.872;12.014;2023-06-14T10:59:16;4.88;;;3.05;;
23624;SDS011;11989;47.872;12.014;2023-06-14T11:04:32;7.10;;;3.83;;
23624;SDS011;11989;47.872;12.014;2023-06-14T11:07:08;6.30;;;3.70;;
23624;SDS011;11989;47.872;12.014;2023-06-14T11:12:20;6.22;;;3.35;;
23624;SDS011;11989;47.872;12.014;2023-06-14T11:14:47;13.05;;;4.03;;
23624;SDS011;11989;47.872;12.014;2023-06-14T11:17:13;6.55;;;3.80;;
23624;SDS011;11989;47.872;12.014;2023-06-14T11:19:39;5.90;;;3.53;;
23624;SDS011;11989;47.872;12.014;2023-06-14T11:22:05;6.05;;;3.13;;
23624;SDS011;11989;47.872;12.014;2023-06-14T11:24:32;5.82;;;3.30;;
23624;SDS011;11989;47.872;12.014;2023-06-14T11:26:58;7.70;;;4.00;;
23624;SDS011;11989;47.872;12.014;2023-06-14T11:29:24;5.10;;;3.45;;
23624;SDS011;11989;47.872;12.014;2023-06-14T11:31:50;7.57;;;3.40;;
23624;SDS011;11989;47.872;12.014;2023-06-14T11:34:17;6.28;;;3.30;;
23624;SDS011;11989;47.872;12.014;2023-06-14T11:36:43;5.53;;;3.33;;
23624;SDS011;11989;47.872;12.014;2023-06-14T11:39:11;5.55;;;3.70;;
23624;SDS011;11989;47.872;12.014;2023-06-14T11:41:44;6.32;;;3.78;;
23624;SDS011;11989;47.872;12.014;2023-06-14T11:44:10;5.22;;;3.58;;
23624;SDS011;11989;47.872;12.014;2023-06-14T11:46:39;6.10;;;3.03;;
23624;SDS011;11989;47.872;12.014;2023-06-14T11:49:06;6.18;;;3.08;;
23624;SDS011;11989;47.872;12.014;2023-06-14T11:51:34;6.72;;;3.90;;
23624;SDS011;11989;47.872;12.014;2023-06-14T11:54:03;6.65;;;3.88;;
23624;SDS011;11989;47.872;12.014;2023-06-14T11:56:30;6.07;;;3.50;;
23624;SDS011;11989;47.872;12.014;2023-06-14T11:58:57;5.60;;;3.72;;
23624;SDS011;11989;47.872;12.014;2023-06-14T12:01:23;6.10;;;3.83;;
23624;SDS011;11989;47.872;12.014;2023-06-14T12:03:52;5.10;;;3.72;;
23624;SDS011;11989;47.872;12.014;2023-06-14T12:06:28;6.60;;;3.47;;
23624;SDS011;11989;47.872;12.014;2023-06-14T12:08:57;7.82;;;4.10;;
23624;SDS011;11989;47.872;12.014;2023-06-14T12:11:23;5.05;;;3.72;;
23624;SDS011;11989;47.872;12.014;2023-06-14T12:13:50;6.88;;;4.20;;
23624;SDS011;11989;47.872;12.014;2023-06-14T12:16:16;8.73;;;3.90;;
23624;SDS011;11989;47.872;12.014;2023-06-14T12:18:42;6.90;;;3.72;;
23624;SDS011;11989;47.872;12.014;2023-06-14T12:21:08;12.18;;;5.13;;
23624;SDS011;11989;47.872;12.014;2023-06-14T12:23:53;10.27;;;4.50;;
23624;SDS011;11989;47.872;12.014;2023-06-14T12:26:19;4.95;;;3.20;;
23624;SDS011;11989;47.872;12.014;2023-06-14T12:28:46;7.93;;;4.15;;
23624;SDS011;11989;47.872;12.014;2023-06-14T12:31:13;5.05;;;3.42;;
23624;SDS011;11989;47.872;12.014;2023-06-14T12:33:39;5.75;;;3.53;;
23624;SDS011;11989;47.872;12.014;2023-06-14T12:36:09;6.25;;;3.50;;
23624;SDS011;11989;47.872;12.014;2023-06-14T12:38:36;6.50;;;3.63;;
23624;SDS011;11989;47.872;12.014;2023-06-14T12:41:02;6.72;;;3.47;;
23624;SDS011;11989;47.872;12.014;2023-06-14T12:43:28;5.25;;;3.55;;
23624;SDS011;11989;47.872;12.014;2023-06-14T12:45:54;5.53;;;3.63;;
23624;SDS011;11989;47.872;12.014;2023-06-14T12:48:20;6.90;;;3.38;;
23624;SDS011;11989;47.872;12.014;2023-06-14T12:50:47;7.72;;;4.25;;
23624;SDS011;11989;47.872;12.014;2023-06-14T12:53:13;6.05;;;3.88;;
23624;SDS011;11989;47.872;12.014;2023-06-14T12:55:39;5.55;;;3.53;;
23624;SDS011;11989;47.872;12.014;2023-06-14T12:58:05;5.28;;;3.83;;
23624;SDS011;11989;47.872;12.014;2023-06-14T13:00:31;9.40;;;3.55;;
23624;SDS011;11989;47.872;12.014;2023-06-14T13:02:57;8.20;;;4.57;;
23624;SDS011;11989;47.872;12.014;2023-06-14T13:05:24;7.43;;;4.88;;
23624;SDS011;11989;47.872;12.014;2023-06-14T13:07:50;5.75;;;3.80;;
23624;SDS011;11989;47.872;12.014;2023-06-14T13:10:16;6.43;;;3.55;;
23624;SDS011;11989;47.872;12.014;2023-06-14T13:12:43;5.28;;;3.22;;
23624;SDS011;11989;47.872;12.014;2023-06-14T13:15:09;4.65;;;3.50;;
23624;SDS011;11989;47.872;12.014;2023-06-14T13:17:35;6.65;;;3.38;;
23624;SDS011;11989;47.872;12.014;2023-06-14T13:20:08;11.50;;;3.80;;
23624;SDS011;11989;47.872;12.014;2023-06-14T13:22:34;6.03;;;4.03;;
23624;SDS011;11989;47.872;12.014;2023-06-14T13:25:01;10.55;;;4.78;;
23624;SDS011;11989;47.872;12.014;2023-06-14T13:27:29;10.05;;;5.50;;
23624;SDS011;11989;47.872;12.014;2023-06-14T13:29:55;5.03;;;3.30;;
23624;SDS011;11989;47.872;12.014;2023-06-14T13:32:22;6.30;;;3.35;;
23624;SDS011;11989;47.872;12.014;2023-06-14T13:34:48;5.75;;;3.92;;
23624;SDS011;11989;47.872;12.014;2023-06-14T13:37:14;4.20;;;2.95;;
23624;SDS011;11989;47.872;12.014;2023-06-14T13:39:41;5.80;;;3.40;;
23624;SDS011;11989;47.872;12.014;2023-06-14T13:42:07;6.68;;;4.30;;
23624;SDS011;11989;47.872;12.014;2023-06-14T13:44:33;6.95;;;3.83;;
23624;SDS011;11989;47.872;12.014;2023-06-14T13:46:59;6.43;;;4.20;;
23624;SDS011;11989;47.872;12.014;2023-06-14T13:49:25;7.00;;;3.45;;
23624;SDS011;11989;47.872;12.014;2023-06-14T13:51:51;7.35;;;3.92;;
23624;SDS011;11989;47.872;12.014;2023-06-14T13:54:19;4.90;;;3.40;;
23624;SDS011;11989;47.872;12.014;2023-06-14T13:56:46;6.35;;;3.40;;
23624;SDS011;11989;47.872;12.014;2023-06-14T13:59:12;7.78;;;4.20;;
23624;SDS011;11989;47.872;12.014;2023-06-14T14:01:38;6.18;;;3.88;;
23624;SDS011;11989;47.872;12.014;2023-06-14T14:04:04;6.78;;;3.47;;
23624;SDS011;11989;47.872;12.014;2023-06-14T14:06:30;7.15;;;3.65;;
23624;SDS011;11989;47.872;12.014;2023-06-14T14:08:57;5.88;;;3.40;;
23624;SDS011;11989;47.872;12.014;2023-06-14T14:11:23;4.75;;;3.20;;
23624;SDS011;11989;47.872;12.014;2023-06-14T14:13:50;8.00;;;4.03;;
23624;SDS011;11989;47.872;12.014;2023-06-14T14:16:16;7.03;;;4.50;;
23624;SDS011;11989;47.872;12.014;2023-06-14T14:18:45;7.10;;;4.10;;
23624;SDS011;11989;47.872;12.014;2023-06-14T14:21:11;6.63;;;3.90;;
23624;SDS011;11989;47.872;12.014;2023-06-14T14:23:38;7.07;;;4.63;;
23624;SDS011;11989;47.872;12.014;2023-06-14T14:26:04;6.90;;;4.45;;
23624;SDS011;11989;47.872;12.014;2023-06-14T14:28:30;6.75;;;3.78;;
23624;SDS011;11989;47.872;12.014;2023-06-14T14:30:57;8.80;;;4.07;;
23624;SDS011;11989;47.872;12.014;2023-06-14T14:33:24;5.68;;;4.22;;
23624;SDS011;11989;47.872;12.014;2023-06-14T14:35:50;6.55;;;4.50;;
23624;SDS011;11989;47.872;12.014;2023-06-14T14:38:16;5.32;;;3.40;;
23624;SDS011;11989;47.872;12.014;2023-06-14T14:40:43;7.70;;;3.72;;
23624;SDS011;11989;47.872;12.014;2023-06-14T14:43:09;5.60;;;3.47;;
23624;SDS011;11989;47.872;12.014;2023-06-14T14:45:36;8.15;;;5.68;;
23624;SDS011;11989;47.872;12.014;2023-06-14T14:48:02;6.13;;;4.13;;
23624;SDS011;11989;47.872;12.014;2023-06-14T14:50:28;5.25;;;3.35;;
23624;SDS011;11989;47.872;12.014;2023-06-14T14:52:54;6.85;;;3.75;;
23624;SDS011;11989;47.872;12.014;2023-06-14T14:55:21;6.20;;;4.00;;
23624;SDS011;11989;47.872;12.014;2023-06-14T14:57:47;7.82;;;3.70;;
23624;SDS011;11989;47.872;12.014;2023-06-14T15:00:13;8.38;;;3.97;;
23624;SDS011;11989;47.872;12.014;2023-06-14T15:02:40;6.85;;;4.90;;
23624;SDS011;11989;47.872;12.014;2023-06-14T15:05:06;8.98;;;6.00;;
23624;SDS011;11989;47.872;12.014;2023-06-14T15:07:32;7.38;;;5.25;;
23624;SDS011;11989;47.872;12.014;2023-06-14T15:09:59;5.80;;;3.60;;
23624;SDS011;11989;47.872;12.014;2023-06-14T15:12:25;7.78;;;4.18;;
23624;SDS011;11989;47.872;12.014;2023-06-14T15:14:51;5.57;;;3.40;;
23624;SDS011;11989;47.872;12.014;2023-06-14T15:17:17;6.13;;;3.25;;
23624;SDS011;11989;47.872;12.014;2023-06-14T15:19:45;5.72;;;3.35;;
23624;SDS011;11989;47.872;12.014;2023-06-14T15:22:11;6.93;;;4.70;;
23624;SDS011;11989;47.872;12.014;2023-06-14T15:24:37;6.28;;;4.68;;
23624;SDS011;11989;47.872;12.014;2023-06-14T15:27:03;6.25;;;4.20;;
23624;SDS011;11989;47.872;12.014;2023-06-14T15:29:29;7.00;;;3.75;;
23624;SDS011;11989;47.872;12.014;2023-06-14T15:31:55;8.05;;;4.35;;
23624;SDS011;11989;47.872;12.014;2023-06-14T15:34:23;5.97;;;3.33;;
23624;SDS011;11989;47.872;12.014;2023-06-14T15:36:49;7.07;;;3.72;;
23624;SDS011;11989;47.872;12.014;2023-06-14T15:39:15;6.25;;;4.22;;
23624;SDS011;11989;47.872;12.014;2023-06-14T15:41:41;5.03;;;3.20;;
23624;SDS011;11989;47.872;12.014;2023-06-14T15:44:07;7.47;;;5.47;;
23624;SDS011;11989;47.872;12.014;2023-06-14T15:46:41;6.35;;;3.70;;
23624;SDS011;11989;47.872;12.014;2023-06-14T15:49:10;4.70;;;3.60;;
23624;SDS011;11989;47.872;12.014;2023-06-14T15:51:36;6.88;;;4.22;;
23624;SDS011;11989;47.872;12.014;2023-06-14T15:54:02;7.20;;;4.32;;
23624;SDS011;11989;47.872;12.014;2023-06-14T15:56:28;5.47;;;4.00;;
23624;SDS011;11989;47.872;12.014;2023-06-14T15:58:55;6.47;;;3.67;;
23624;SDS011;11989;47.872;12.014;2023-06-14T16:01:22;10.43;;;8.27;;
23624;SDS011;11989;47.872;12.014;2023-06-14T16:03:49;7.45;;;5.03;;
23624;SDS011;11989;47.872;12.014;2023-06-14T16:06:15;5.65;;;3.70;;
23624;SDS011;11989;47.872;12.014;2023-06-14T16:08:41;7.13;;;4.35;;
23624;SDS011;11989;47.872;12.014;2023-06-14T16:11:07;8.20;;;3.88;;
23624;SDS011;11989;47.872;12.014;2023-06-14T16:13:34;7.18;;;4.20;;
23624;SDS011;11989;47.872;12.014;2023-06-14T16:16:00;5.35;;;3.65;;
23624;SDS011;11989;47.872;12.014;2023-06-14T16:18:26;5.95;;;3.45;;
23624;SDS011;11989;47.872;12.014;2023-06-14T16:20:52;5.80;;;3.78;;
23624;SDS011;11989;47.872;12.014;2023-06-14T16:23:20;6.13;;;4.05;;
23624;SDS011;11989;47.872;12.014;2023-06-14T16:25:46;6.35;;;3.40;;
23624;SDS011;11989;47.872;12.014;2023-06-14T16:28:13;6.78;;;3.78;;
23624;SDS011;11989;47.872;12.014;2023-06-14T16:30:39;7.55;;;3.58;;
23624;SDS011;11989;47.872;12.014;2023-06-14T16:33:05;6.97;;;4.03;;
23624;SDS011;11989;47.872;12.014;2023-06-14T16:35:31;7.05;;;4.63;;
23624;SDS011;11989;47.872;12.014;2023-06-14T16:37:57;5.65;;;3.33;;
23624;SDS011;11989;47.872;12.014;2023-06-14T16:40:23;6.72;;;3.88;;
23624;SDS011;11989;47.872;12.014;2023-06-14T16:42:49;10.18;;;5.68;;
23624;SDS011;11989;47.872;12.014;2023-06-14T16:45:15;6.82;;;4.00;;
23624;SDS011;11989;47.872;12.014;2023-06-14T16:47:42;12.88;;;4.07;;
23624;SDS011;11989;47.872;12.014;2023-06-14T16:50:08;7.40;;;4.40;;
23624;SDS011;11989;47.872;12.014;2023-06-14T16:52:34;9.13;;;3.45;;
23624;SDS011;11989;47.872;12.014;2023-06-14T16:55:00;6.43;;;3.60;;
23624;SDS011;11989;47.872;12.014;2023-06-14T16:57:26;7.13;;;4.93;;
23624;SDS011;11989;47.872;12.014;2023-06-14T16:59:52;5.28;;;3.67;;
23624;SDS011;11989;47.872;12.014;2023-06-14T17:02:18;8.82;;;4.22;;
23624;SDS011;11989;47.872;12.014;2023-06-14T17:04:44;8.27;;;5.20;;
23624;SDS011;11989;47.872;12.014;2023-06-14T17:07:10;6.72;;;4.32;;
23624;SDS011;11989;47.872;12.014;2023-06-14T17:09:36;7.65;;;5.18;;
23624;SDS011;11989;47.872;12.014;2023-06-14T17:12:03;8.48;;;5.78;;
23624;SDS011;11989;47.872;12.014;2023-06-14T17:14:29;6.32;;;4.18;;
23624;SDS011;11989;47.872;12.014;2023-06-14T17:16:55;6.38;;;4.30;;
23624;SDS011;11989;47.872;12.014;2023-06-14T17:19:21;7.60;;;4.57;;
23624;SDS011;11989;47.872;12.014;2023-06-14T17:21:47;9.02;;;6.18;;
23624;SDS011;11989;47.872;12.014;2023-06-14T17:24:16;7.18;;;3.83;;
23624;SDS011;11989;47.872;12.014;2023-06-14T17:26:42;7.40;;;5.13;;
23624;SDS011;11989;47.872;12.014;2023-06-14T17:29:09;5.20;;;3.45;;
23624;SDS011;11989;47.872;12.014;2023-06-14T17:31:35;9.00;;;4.53;;
23624;SDS011;11989;47.872;12.014;2023-06-14T17:34:01;6.30;;;3.63;;
23624;SDS011;11989;47.872;12.014;2023-06-14T17:36:27;6.38;;;4.47;;
23624;SDS011;11989;47.872;12.014;2023-06-14T17:38:54;6.75;;;4.10;;
23624;SDS011;11989;47.872;12.014;2023-06-14T17:41:20;10.57;;;4.90;;
23624;SDS011;11989;47.872;12.014;2023-06-14T17:43:48;11.88;;;8.10;;
23624;SDS011;11989;47.872;12.014;2023-06-14T17:46:14;8.57;;;5.45;;
23624;SDS011;11989;47.872;12.014;2023-06-14T17:48:40;7.18;;;4.75;;
23624;SDS011;11989;47.872;12.014;2023-06-14T17:51:06;9.55;;;5.93;;
23624;SDS011;11989;47.872;12.014;2023-06-14T17:53:32;11.98;;;7.15;;
23624;SDS011;11989;47.872;12.014;2023-06-14T17:55:59;11.00;;;6.60;;
23624;SDS011;11989;47.872;12.014;2023-06-14T17:58:26;8.55;;;5.00;;
23624;SDS011;11989;47.872;12.014;2023-06-14T18:00:52;8.27;;;5.18;;
23624;SDS011;11989;47.872;12.014;2023-06-14T18:03:18;8.88;;;6.15;;
23624;SDS011;11989;47.872;12.014;2023-06-14T18:05:44;7.45;;;5.30;;
23624;SDS011;11989;47.872;12.014;2023-06-14T18:08:10;7.03;;;5.40;;
23624;SDS011;11989;47.872;12.014;2023-06-14T18:10:37;6.47;;;4.70;;
23624;SDS011;11989;47.872;12.014;2023-06-14T18:13:03;8.25;;;6.35;;
23624;SDS011;11989;47.872;12.014;2023-06-14T18:15:30;6.85;;;5.10;;
23624;SDS011;11989;47.872;12.014;2023-06-14T18:17:56;7.50;;;4.85;;
23624;SDS011;11989;47.872;12.014;2023-06-14T18:20:22;5.97;;;4.40;;